WADD/DPS METAR and TAF weather

Enter ICAO airport designator
Station Type Date Time Source
WADD METAR 2019/10/23 07:30 UTC NOAA

WADD 230730Z 16014KT 9999 FEW017 29/25 Q1008 NOSIG


Station Type Date Time Source
WADD Decoded METAR 2019/10/23 07:30 UTC NOAA

Station name not available
Oct 23, 2019 - 03:30 AM EDT / 2019.10.23 0730 UTC
Wind: from the SSE (160 degrees) at 16 MPH (14 KT):0
Visibility: greater than 7 mile(s):0
Sky conditions: mostly clear
Temperature: 84 F (29 C)
Dew Point: 77 F (25 C)
Relative Humidity: 79%
Pressure (altimeter): 29.77 in. Hg (1008 hPa)
ob: WADD 230730Z 16014KT 9999 FEW017 29/25 Q1008 NOSIG
cycle: 7

Station Type Date Time Source
WADD TAF 2019/10/23 06:09 UTC NOAA

TAF WADD 230500Z 2306/2406 15010KT 9999 SCT016
BECMG 2316/2318 VRB05KT

Example: see airport list